sensor_id;sensor_type;location;lat;lon;timestamp;P1;durP1;ratioP1;P2;durP2;ratioP2
12980;SDS011;6555;50.468;8.480;2022-10-04T00:01:41;1.50;;;1.40;;
12980;SDS011;6555;50.468;8.480;2022-10-04T00:06:48;1.10;;;1.00;;
12980;SDS011;6555;50.468;8.480;2022-10-04T00:11:57;1.63;;;1.33;;
12980;SDS011;6555;50.468;8.480;2022-10-04T00:17:06;1.10;;;1.07;;
12980;SDS011;6555;50.468;8.480;2022-10-04T00:22:12;1.07;;;1.00;;
12980;SDS011;6555;50.468;8.480;2022-10-04T00:27:21;1.10;;;1.00;;
12980;SDS011;6555;50.468;8.480;2022-10-04T00:32:26;1.30;;;1.20;;
12980;SDS011;6555;50.468;8.480;2022-10-04T00:37:50;0.97;;;0.90;;
12980;SDS011;6555;50.468;8.480;2022-10-04T00:42:59;1.30;;;1.20;;
12980;SDS011;6555;50.468;8.480;2022-10-04T00:48:13;1.33;;;1.23;;
12980;SDS011;6555;50.468;8.480;2022-10-04T00:53:40;1.97;;;1.20;;
12980;SDS011;6555;50.468;8.480;2022-10-04T01:04:27;1.10;;;1.00;;
12980;SDS011;6555;50.468;8.480;2022-10-04T01:09:45;1.57;;;1.20;;
12980;SDS011;6555;50.468;8.480;2022-10-04T01:14:58;1.70;;;1.30;;
12980;SDS011;6555;50.468;8.480;2022-10-04T01:20:28;1.00;;;1.00;;
12980;SDS011;6555;50.468;8.480;2022-10-04T01:25:45;1.20;;;1.10;;
12980;SDS011;6555;50.468;8.480;2022-10-04T01:30:50;1.10;;;1.00;;
12980;SDS011;6555;50.468;8.480;2022-10-04T01:35:54;1.10;;;1.00;;
12980;SDS011;6555;50.468;8.480;2022-10-04T01:40:58;1.30;;;1.20;;
12980;SDS011;6555;50.468;8.480;2022-10-04T01:46:05;1.33;;;1.20;;
12980;SDS011;6555;50.468;8.480;2022-10-04T01:51:14;1.40;;;1.30;;
12980;SDS011;6555;50.468;8.480;2022-10-04T01:56:23;1.67;;;1.40;;
12980;SDS011;6555;50.468;8.480;2022-10-04T02:01:29;1.60;;;1.50;;
12980;SDS011;6555;50.468;8.480;2022-10-04T02:06:39;1.00;;;1.00;;
12980;SDS011;6555;50.468;8.480;2022-10-04T02:11:47;1.73;;;1.30;;
12980;SDS011;6555;50.468;8.480;2022-10-04T02:16:52;1.17;;;1.07;;
12980;SDS011;6555;50.468;8.480;2022-10-04T02:21:56;1.40;;;1.30;;
12980;SDS011;6555;50.468;8.480;2022-10-04T02:27:02;1.70;;;1.33;;
12980;SDS011;6555;50.468;8.480;2022-10-04T02:32:06;1.37;;;1.27;;
12980;SDS011;6555;50.468;8.480;2022-10-04T02:37:28;1.80;;;1.70;;
12980;SDS011;6555;50.468;8.480;2022-10-04T02:42:36;1.37;;;1.20;;
12980;SDS011;6555;50.468;8.480;2022-10-04T02:47:42;1.30;;;1.20;;
12980;SDS011;6555;50.468;8.480;2022-10-04T02:52:49;2.90;;;1.47;;
12980;SDS011;6555;50.468;8.480;2022-10-04T02:57:57;1.27;;;1.17;;
12980;SDS011;6555;50.468;8.480;2022-10-04T03:03:09;2.00;;;1.50;;
12980;SDS011;6555;50.468;8.480;2022-10-04T03:08:17;2.27;;;1.63;;
12980;SDS011;6555;50.468;8.480;2022-10-04T03:13:21;1.40;;;1.30;;
12980;SDS011;6555;50.468;8.480;2022-10-04T03:18:25;1.30;;;1.20;;
12980;SDS011;6555;50.468;8.480;2022-10-04T03:23:28;1.93;;;1.20;;
12980;SDS011;6555;50.468;8.480;2022-10-04T03:28:34;1.47;;;1.30;;
12980;SDS011;6555;50.468;8.480;2022-10-04T03:33:39;1.60;;;1.30;;
12980;SDS011;6555;50.468;8.480;2022-10-04T03:38:44;1.53;;;1.40;;
12980;SDS011;6555;50.468;8.480;2022-10-04T03:43:51;1.30;;;1.20;;
12980;SDS011;6555;50.468;8.480;2022-10-04T03:48:56;1.97;;;1.17;;
12980;SDS011;6555;50.468;8.480;2022-10-04T03:54:00;1.27;;;1.17;;
12980;SDS011;6555;50.468;8.480;2022-10-04T03:59:09;1.30;;;1.20;;
12980;SDS011;6555;50.468;8.480;2022-10-04T04:04:19;1.33;;;1.23;;
12980;SDS011;6555;50.468;8.480;2022-10-04T04:09:31;1.30;;;1.20;;
12980;SDS011;6555;50.468;8.480;2022-10-04T04:14:42;1.40;;;1.30;;
12980;SDS011;6555;50.468;8.480;2022-10-04T04:19:47;1.30;;;1.20;;
12980;SDS011;6555;50.468;8.480;2022-10-04T04:24:50;1.87;;;1.70;;
12980;SDS011;6555;50.468;8.480;2022-10-04T04:29:56;1.97;;;1.30;;
12980;SDS011;6555;50.468;8.480;2022-10-04T04:35:03;1.40;;;1.30;;
12980;SDS011;6555;50.468;8.480;2022-10-04T04:40:17;1.43;;;1.33;;
12980;SDS011;6555;50.468;8.480;2022-10-04T04:45:23;1.23;;;1.13;;
12980;SDS011;6555;50.468;8.480;2022-10-04T04:50:30;1.40;;;1.30;;
12980;SDS011;6555;50.468;8.480;2022-10-04T04:55:37;1.43;;;1.33;;
12980;SDS011;6555;50.468;8.480;2022-10-04T05:01:04;3.30;;;1.50;;
12980;SDS011;6555;50.468;8.480;2022-10-04T05:06:19;1.70;;;1.30;;
12980;SDS011;6555;50.468;8.480;2022-10-04T05:11:26;1.60;;;1.30;;
12980;SDS011;6555;50.468;8.480;2022-10-04T05:16:35;1.63;;;1.50;;
12980;SDS011;6555;50.468;8.480;2022-10-04T05:21:43;2.07;;;1.40;;
12980;SDS011;6555;50.468;8.480;2022-10-04T05:26:49;1.73;;;1.30;;
12980;SDS011;6555;50.468;8.480;2022-10-04T05:31:59;1.40;;;1.30;;
12980;SDS011;6555;50.468;8.480;2022-10-04T05:42:33;1.70;;;1.43;;
12980;SDS011;6555;50.468;8.480;2022-10-04T05:47:48;1.53;;;1.43;;
12980;SDS011;6555;50.468;8.480;2022-10-04T05:52:53;2.10;;;1.57;;
12980;SDS011;6555;50.468;8.480;2022-10-04T05:58:22;1.57;;;1.40;;
12980;SDS011;6555;50.468;8.480;2022-10-04T06:03:46;1.50;;;1.40;;
12980;SDS011;6555;50.468;8.480;2022-10-04T06:09:05;1.40;;;1.30;;
12980;SDS011;6555;50.468;8.480;2022-10-04T06:14:33;2.07;;;1.37;;
12980;SDS011;6555;50.468;8.480;2022-10-04T06:25:47;1.87;;;1.43;;
12980;SDS011;6555;50.468;8.480;2022-10-04T06:31:02;1.60;;;1.40;;
12980;SDS011;6555;50.468;8.480;2022-10-04T06:36:23;2.03;;;1.57;;
12980;SDS011;6555;50.468;8.480;2022-10-04T06:41:42;3.03;;;1.50;;
12980;SDS011;6555;50.468;8.480;2022-10-04T06:47:08;1.87;;;1.70;;
12980;SDS011;6555;50.468;8.480;2022-10-04T06:52:27;2.07;;;1.73;;
12980;SDS011;6555;50.468;8.480;2022-10-04T06:58:08;1.73;;;1.53;;
12980;SDS011;6555;50.468;8.480;2022-10-04T07:03:26;1.43;;;1.30;;
12980;SDS011;6555;50.468;8.480;2022-10-04T07:08:36;1.30;;;1.20;;
12980;SDS011;6555;50.468;8.480;2022-10-04T07:13:46;1.30;;;1.20;;
12980;SDS011;6555;50.468;8.480;2022-10-04T07:18:58;1.53;;;1.43;;
12980;SDS011;6555;50.468;8.480;2022-10-04T07:24:08;1.30;;;1.20;;
12980;SDS011;6555;50.468;8.480;2022-10-04T07:29:20;1.30;;;1.20;;
12980;SDS011;6555;50.468;8.480;2022-10-04T07:34:27;1.70;;;1.60;;
12980;SDS011;6555;50.468;8.480;2022-10-04T07:39:33;1.70;;;1.60;;
12980;SDS011;6555;50.468;8.480;2022-10-04T07:44:46;1.40;;;1.30;;
12980;SDS011;6555;50.468;8.480;2022-10-04T07:50:12;1.83;;;1.73;;
12980;SDS011;6555;50.468;8.480;2022-10-04T07:55:23;2.23;;;1.50;;
12980;SDS011;6555;50.468;8.480;2022-10-04T08:00:33;2.13;;;1.80;;
12980;SDS011;6555;50.468;8.480;2022-10-04T08:05:45;1.73;;;1.57;;
12980;SDS011;6555;50.468;8.480;2022-10-04T08:10:55;1.70;;;1.60;;
12980;SDS011;6555;50.468;8.480;2022-10-04T08:16:15;1.60;;;1.50;;
12980;SDS011;6555;50.468;8.480;2022-10-04T08:21:34;2.10;;;1.43;;
12980;SDS011;6555;50.468;8.480;2022-10-04T08:26:51;1.70;;;1.60;;
12980;SDS011;6555;50.468;8.480;2022-10-04T08:32:10;1.70;;;1.60;;
12980;SDS011;6555;50.468;8.480;2022-10-04T08:37:27;2.40;;;1.73;;
12980;SDS011;6555;50.468;8.480;2022-10-04T08:42:50;1.63;;;1.53;;
12980;SDS011;6555;50.468;8.480;2022-10-04T09:05:22;1.43;;;1.33;;
12980;SDS011;6555;50.468;8.480;2022-10-04T09:10:42;1.83;;;1.53;;
12980;SDS011;6555;50.468;8.480;2022-10-04T09:16:07;1.63;;;1.53;;
12980;SDS011;6555;50.468;8.480;2022-10-04T09:21:27;1.70;;;1.60;;
12980;SDS011;6555;50.468;8.480;2022-10-04T09:26:43;1.93;;;1.73;;
12980;SDS011;6555;50.468;8.480;2022-10-04T09:37:25;1.90;;;1.73;;
12980;SDS011;6555;50.468;8.480;2022-10-04T09:42:59;2.70;;;2.07;;
12980;SDS011;6555;50.468;8.480;2022-10-04T09:48:22;2.23;;;1.90;;
12980;SDS011;6555;50.468;8.480;2022-10-04T09:53:33;2.10;;;1.90;;
12980;SDS011;6555;50.468;8.480;2022-10-04T09:58:49;2.47;;;2.27;;
12980;SDS011;6555;50.468;8.480;2022-10-04T10:04:23;2.23;;;2.03;;
12980;SDS011;6555;50.468;8.480;2022-10-04T10:09:42;2.07;;;1.90;;
12980;SDS011;6555;50.468;8.480;2022-10-04T10:15:14;2.40;;;2.00;;
12980;SDS011;6555;50.468;8.480;2022-10-04T10:26:20;2.40;;;2.20;;
12980;SDS011;6555;50.468;8.480;2022-10-04T10:31:46;2.70;;;2.13;;
12980;SDS011;6555;50.468;8.480;2022-10-04T10:37:03;2.23;;;2.03;;
12980;SDS011;6555;50.468;8.480;2022-10-04T10:42:25;2.30;;;2.00;;
12980;SDS011;6555;50.468;8.480;2022-10-04T10:47:46;2.87;;;2.33;;
12980;SDS011;6555;50.468;8.480;2022-10-04T10:53:08;2.33;;;2.00;;
12980;SDS011;6555;50.468;8.480;2022-10-04T10:58:29;2.03;;;1.83;;
12980;SDS011;6555;50.468;8.480;2022-10-04T11:04:16;2.07;;;1.60;;
12980;SDS011;6555;50.468;8.480;2022-10-04T11:09:43;2.07;;;1.87;;
12980;SDS011;6555;50.468;8.480;2022-10-04T11:21:11;2.03;;;1.70;;
12980;SDS011;6555;50.468;8.480;2022-10-04T11:32:18;1.65;;;1.52;;
12980;SDS011;6555;50.468;8.480;2022-10-04T11:37:38;2.45;;;1.55;;
12980;SDS011;6555;50.468;8.480;2022-10-04T12:17:48;2.40;;;1.70;;
12980;SDS011;6555;50.468;8.480;2022-10-04T12:23:26;2.58;;;1.60;;
12980;SDS011;6555;50.468;8.480;2022-10-04T12:29:08;1.77;;;1.60;;
12980;SDS011;6555;50.468;8.480;2022-10-04T12:34:35;1.98;;;1.38;;
12980;SDS011;6555;50.468;8.480;2022-10-04T12:39:56;1.60;;;1.50;;
12980;SDS011;6555;50.468;8.480;2022-10-04T12:50:51;2.15;;;1.40;;
12980;SDS011;6555;50.468;8.480;2022-10-04T12:56:04;1.63;;;1.15;;
12980;SDS011;6555;50.468;8.480;2022-10-04T13:01:11;1.40;;;1.30;;
12980;SDS011;6555;50.468;8.480;2022-10-04T13:06:29;1.52;;;1.20;;
12980;SDS011;6555;50.468;8.480;2022-10-04T13:11:50;1.95;;;1.50;;
12980;SDS011;6555;50.468;8.480;2022-10-04T13:17:02;1.48;;;1.30;;
12980;SDS011;6555;50.468;8.480;2022-10-04T13:22:37;2.05;;;1.23;;
12980;SDS011;6555;50.468;8.480;2022-10-04T13:27:59;1.30;;;1.05;;
12980;SDS011;6555;50.468;8.480;2022-10-04T13:33:10;2.30;;;1.60;;
12980;SDS011;6555;50.468;8.480;2022-10-04T13:38:30;1.25;;;1.08;;
12980;SDS011;6555;50.468;8.480;2022-10-04T13:49:28;1.50;;;1.00;;
12980;SDS011;6555;50.468;8.480;2022-10-04T13:54:48;1.42;;;1.13;;
12980;SDS011;6555;50.468;8.480;2022-10-04T14:00:18;2.65;;;1.20;;
12980;SDS011;6555;50.468;8.480;2022-10-04T14:11:44;1.05;;;1.02;;
12980;SDS011;6555;50.468;8.480;2022-10-04T14:17:22;1.42;;;0.95;;
12980;SDS011;6555;50.468;8.480;2022-10-04T14:22:53;1.40;;;1.30;;
12980;SDS011;6555;50.468;8.480;2022-10-04T14:28:35;1.45;;;1.35;;
12980;SDS011;6555;50.468;8.480;2022-10-04T14:34:20;1.70;;;1.48;;
12980;SDS011;6555;50.468;8.480;2022-10-04T14:40:02;1.30;;;1.20;;
12980;SDS011;6555;50.468;8.480;2022-10-04T14:45:28;3.13;;;1.30;;
12980;SDS011;6555;50.468;8.480;2022-10-04T14:50:37;1.40;;;1.27;;
12980;SDS011;6555;50.468;8.480;2022-10-04T14:56:02;1.88;;;1.45;;
12980;SDS011;6555;50.468;8.480;2022-10-04T15:01:27;3.13;;;1.40;;
12980;SDS011;6555;50.468;8.480;2022-10-04T15:06:35;1.40;;;1.30;;
12980;SDS011;6555;50.468;8.480;2022-10-04T15:11:45;1.80;;;1.40;;
12980;SDS011;6555;50.468;8.480;2022-10-04T15:17:25;1.30;;;1.20;;
12980;SDS011;6555;50.468;8.480;2022-10-04T15:22:30;2.05;;;1.33;;
12980;SDS011;6555;50.468;8.480;2022-10-04T15:27:46;1.52;;;1.30;;
12980;SDS011;6555;50.468;8.480;2022-10-04T15:38:28;1.85;;;1.05;;
12980;SDS011;6555;50.468;8.480;2022-10-04T15:43:36;1.40;;;1.20;;
12980;SDS011;6555;50.468;8.480;2022-10-04T15:48:54;2.53;;;1.75;;
12980;SDS011;6555;50.468;8.480;2022-10-04T15:54:32;3.28;;;1.48;;
12980;SDS011;6555;50.468;8.480;2022-10-04T16:00:03;2.00;;;1.60;;
12980;SDS011;6555;50.468;8.480;2022-10-04T16:05:13;1.35;;;1.20;;
12980;SDS011;6555;50.468;8.480;2022-10-04T16:10:26;1.20;;;1.10;;
12980;SDS011;6555;50.468;8.480;2022-10-04T16:15:33;1.50;;;1.13;;
12980;SDS011;6555;50.468;8.480;2022-10-04T16:20:51;1.98;;;1.50;;
12980;SDS011;6555;50.468;8.480;2022-10-04T16:26:08;2.13;;;1.52;;
12980;SDS011;6555;50.468;8.480;2022-10-04T16:31:25;2.07;;;1.73;;
12980;SDS011;6555;50.468;8.480;2022-10-04T16:36:45;1.80;;;1.30;;
12980;SDS011;6555;50.468;8.480;2022-10-04T16:41:53;1.90;;;1.70;;
12980;SDS011;6555;50.468;8.480;2022-10-04T16:47:11;3.13;;;1.60;;
12980;SDS011;6555;50.468;8.480;2022-10-04T16:52:40;1.57;;;1.43;;
12980;SDS011;6555;50.468;8.480;2022-10-04T17:03:30;2.77;;;2.03;;
12980;SDS011;6555;50.468;8.480;2022-10-04T17:08:51;1.40;;;1.30;;
12980;SDS011;6555;50.468;8.480;2022-10-04T17:14:18;2.33;;;1.30;;
12980;SDS011;6555;50.468;8.480;2022-10-04T17:19:34;1.20;;;1.10;;
12980;SDS011;6555;50.468;8.480;2022-10-04T17:24:53;0.87;;;0.80;;
12980;SDS011;6555;50.468;8.480;2022-10-04T17:30:09;1.87;;;0.87;;
12980;SDS011;6555;50.468;8.480;2022-10-04T17:35:30;1.43;;;1.20;;
12980;SDS011;6555;50.468;8.480;2022-10-04T17:54:23;2.10;;;1.20;;
12980;SDS011;6555;50.468;8.480;2022-10-04T18:00:50;2.10;;;1.50;;
12980;SDS011;6555;50.468;8.480;2022-10-04T18:40:32;0.87;;;0.87;;
12980;SDS011;6555;50.468;8.480;2022-10-04T18:47:26;2.63;;;1.10;;
12980;SDS011;6555;50.468;8.480;2022-10-04T18:54:48;1.17;;;1.07;;
12980;SDS011;6555;50.468;8.480;2022-10-04T19:46:48;1.27;;;1.00;;
12980;SDS011;6555;50.468;8.480;2022-10-04T20:14:47;2.13;;;1.00;;
12980;SDS011;6555;50.468;8.480;2022-10-04T20:32:53;2.93;;;2.20;;
12980;SDS011;6555;50.468;8.480;2022-10-04T20:38:14;2.93;;;1.20;;
12980;SDS011;6555;50.468;8.480;2022-10-04T20:43:53;2.17;;;1.03;;
12980;SDS011;6555;50.468;8.480;2022-10-04T20:49:16;2.03;;;0.90;;
12980;SDS011;6555;50.468;8.480;2022-10-04T20:54:30;1.87;;;1.57;;
12980;SDS011;6555;50.468;8.480;2022-10-04T20:59:41;2.07;;;1.83;;
12980;SDS011;6555;50.468;8.480;2022-10-04T21:11:06;2.13;;;1.70;;
12980;SDS011;6555;50.468;8.480;2022-10-04T21:16:46;4.37;;;1.30;;
12980;SDS011;6555;50.468;8.480;2022-10-04T21:22:39;1.07;;;0.97;;
12980;SDS011;6555;50.468;8.480;2022-10-04T21:28:23;1.57;;;1.33;;
12980;SDS011;6555;50.468;8.480;2022-10-04T21:34:07;3.27;;;1.10;;
12980;SDS011;6555;50.468;8.480;2022-10-04T21:40:14;1.17;;;1.07;;
12980;SDS011;6555;50.468;8.480;2022-10-04T21:45:41;1.20;;;1.00;;
12980;SDS011;6555;50.468;8.480;2022-10-04T21:51:14;1.80;;;1.37;;
12980;SDS011;6555;50.468;8.480;2022-10-04T21:57:02;1.40;;;1.30;;
12980;SDS011;6555;50.468;8.480;2022-10-04T22:02:23;1.43;;;1.20;;
12980;SDS011;6555;50.468;8.480;2022-10-04T22:07:40;2.00;;;1.63;;
12980;SDS011;6555;50.468;8.480;2022-10-04T22:18:54;1.20;;;1.10;;
12980;SDS011;6555;50.468;8.480;2022-10-04T22:24:12;1.67;;;1.27;;
12980;SDS011;6555;50.468;8.480;2022-10-04T22:29:42;1.37;;;1.00;;
12980;SDS011;6555;50.468;8.480;2022-10-04T22:35:12;1.33;;;1.10;;
12980;SDS011;6555;50.468;8.480;2022-10-04T22:40:38;1.83;;;1.40;;
12980;SDS011;6555;50.468;8.480;2022-10-04T22:46:01;2.47;;;1.20;;
12980;SDS011;6555;50.468;8.480;2022-10-04T22:51:17;1.50;;;1.27;;
12980;SDS011;6555;50.468;8.480;2022-10-04T22:56:32;2.77;;;1.40;;
12980;SDS011;6555;50.468;8.480;2022-10-04T23:02:04;1.10;;;1.10;;
12980;SDS011;6555;50.468;8.480;2022-10-04T23:07:23;1.73;;;1.13;;
12980;SDS011;6555;50.468;8.480;2022-10-04T23:12:44;1.10;;;1.00;;
12980;SDS011;6555;50.468;8.480;2022-10-04T23:18:12;1.73;;;1.00;;
12980;SDS011;6555;50.468;8.480;2022-10-04T23:23:39;1.17;;;0.97;;
12980;SDS011;6555;50.468;8.480;2022-10-04T23:29:11;1.37;;;1.27;;
12980;SDS011;6555;50.468;8.480;2022-10-04T23:34:49;1.63;;;1.07;;
12980;SDS011;6555;50.468;8.480;2022-10-04T23:40:17;1.30;;;1.00;;
12980;SDS011;6555;50.468;8.480;2022-10-04T23:45:23;1.23;;;1.13;;
12980;SDS011;6555;50.468;8.480;2022-10-04T23:50:29;0.97;;;0.97;;
12980;SDS011;6555;50.468;8.480;2022-10-04T23:55:36;1.30;;;1.20;;
